createdAt,value
2019-05-03T00:00:12.611Z,58.79
2019-05-03T00:03:07.021Z,58.92
2019-05-03T00:05:49.944Z,59.15
2019-05-03T00:08:19.495Z,59.23
2019-05-03T00:10:49.012Z,59.48
2019-05-03T00:13:18.633Z,59.73
2019-05-03T00:16:06.765Z,59.51
2019-05-03T00:18:39.725Z,59.43
2019-05-03T00:21:09.121Z,59.58
2019-05-03T00:23:38.550Z,59.79
2019-05-03T00:26:08.031Z,60.05
2019-05-03T00:28:38.911Z,60.49
2019-05-03T00:31:09.443Z,60.95
2019-05-03T00:33:39.778Z,60.94
2019-05-03T00:36:32.838Z,61.15
2019-05-03T00:39:21.600Z,61.25
2019-05-03T00:41:52.106Z,61.15
2019-05-03T00:44:22.659Z,61.53
2019-05-03T00:46:52.347Z,61.52
2019-05-03T00:49:22.735Z,61.43
2019-05-03T00:51:52.317Z,61.37
2019-05-03T00:54:22.351Z,61.37
2019-05-03T00:56:52.213Z,61.45
2019-05-03T00:59:22.949Z,61.33
2019-05-03T01:01:55.475Z,61.43
2019-05-03T01:04:25.239Z,61.53
2019-05-03T01:06:56.210Z,61.38
2019-05-03T01:09:28.323Z,61.69
2019-05-03T01:11:57.975Z,61.77
2019-05-03T01:14:27.486Z,61.90
2019-05-03T01:16:57.322Z,61.63
2019-05-03T01:19:27.752Z,61.54
2019-05-03T01:21:58.272Z,62.07
2019-05-03T01:24:29.104Z,62.27
2019-05-03T01:27:01.820Z,62.30
2019-05-03T01:29:32.253Z,62.43
2019-05-03T01:32:03.718Z,62.56
2019-05-03T01:34:35.107Z,62.72
2019-05-03T01:37:04.726Z,62.92
2019-05-03T01:39:34.569Z,63.07
2019-05-03T01:42:05.389Z,63.00
2019-05-03T01:44:36.631Z,63.02
2019-05-03T01:47:12.303Z,63.25
2019-05-03T01:50:12.170Z,63.08
2019-05-03T01:52:46.071Z,63.21
2019-05-03T01:55:16.728Z,63.60
2019-05-03T01:57:46.270Z,64.12
2019-05-03T02:00:22.477Z,64.29
2019-05-03T02:03:01.670Z,64.18
2019-05-03T02:05:45.755Z,64.02
2019-05-03T02:08:18.751Z,64.25
2019-05-03T02:10:48.383Z,64.40
2019-05-03T02:13:19.413Z,64.35
2019-05-03T02:15:52.854Z,64.61
2019-05-03T02:18:23.333Z,64.64
2019-05-03T02:20:52.885Z,64.34
2019-05-03T02:23:23.487Z,64.23
2019-05-03T02:25:58.309Z,64.24
2019-05-03T02:28:26.073Z,64.16
2019-05-03T02:30:55.581Z,63.93
2019-05-03T02:33:26.148Z,63.83
2019-05-03T02:35:55.781Z,63.76
2019-05-03T02:38:26.181Z,63.71
2019-05-03T02:40:55.768Z,63.64
2019-05-03T02:43:31.739Z,63.62
2019-05-03T02:46:11.614Z,63.81
2019-05-03T02:48:50.456Z,63.78
2019-05-03T02:51:19.823Z,63.91
2019-05-03T02:53:49.979Z,63.94
2019-05-03T02:56:22.552Z,64.13
2019-05-03T02:58:51.695Z,64.17
2019-05-03T03:01:21.207Z,64.12
2019-05-03T03:03:55.833Z,64.14
2019-05-03T03:06:26.698Z,64.10
2019-05-03T03:08:58.725Z,63.75
2019-05-03T03:11:30.285Z,63.89
2019-05-03T03:14:01.948Z,64.19
2019-05-03T03:16:36.183Z,64.19
2019-05-03T03:19:07.825Z,63.88
2019-05-03T03:21:42.373Z,64.05
2019-05-03T03:24:17.443Z,63.75
2019-05-03T03:26:49.985Z,63.68
2019-05-03T03:29:25.017Z,63.51
2019-05-03T03:32:19.653Z,64.20
2019-05-03T03:35:03.126Z,63.82
2019-05-03T03:37:31.396Z,63.75
2019-05-03T03:40:01.144Z,63.84
2019-05-03T03:42:32.683Z,63.67
2019-05-03T03:45:06.125Z,64.24
2019-05-03T03:47:40.864Z,64.31
2019-05-03T03:50:11.340Z,64.19
2019-05-03T03:52:45.059Z,64.29
2019-05-03T03:55:15.846Z,64.32
2019-05-03T03:57:46.974Z,64.52
2019-05-03T04:00:19.405Z,64.60
2019-05-03T04:02:50.007Z,64.91
2019-05-03T04:05:20.862Z,64.79
2019-05-03T04:07:51.793Z,64.88
2019-05-03T04:10:26.086Z,64.97
2019-05-03T04:12:56.120Z,65.34
2019-05-03T04:15:57.989Z,65.47
2019-05-03T04:18:35.946Z,65.38
2019-05-03T04:21:06.005Z,65.21
2019-05-03T04:23:38.338Z,65.42
2019-05-03T04:26:09.427Z,65.74
2019-05-03T04:28:40.356Z,65.39
2019-05-03T04:31:10.093Z,65.10
2019-05-03T04:33:40.955Z,64.82
2019-05-03T04:36:11.377Z,64.92
2019-05-03T04:38:40.963Z,64.63
2019-05-03T04:41:10.368Z,64.31
2019-05-03T04:43:39.765Z,64.03
2019-05-03T04:46:17.039Z,64.13
2019-05-03T04:48:47.569Z,63.93
2019-05-03T04:51:18.804Z,63.72
2019-05-03T04:53:57.856Z,63.57
2019-05-03T04:56:30.728Z,63.33
2019-05-03T04:59:05.214Z,63.28
2019-05-03T05:01:35.335Z,63.01
2019-05-03T05:04:06.532Z,62.78
2019-05-03T05:06:36.374Z,62.98
2019-05-03T05:09:07.564Z,62.70
2019-05-03T05:11:38.040Z,62.34
2019-05-03T05:14:10.128Z,61.94
2019-05-03T05:16:39.954Z,61.78
2019-05-03T05:19:15.333Z,61.30
2019-05-03T05:21:48.913Z,61.18
2019-05-03T05:24:18.366Z,60.85
2019-05-03T05:27:08.959Z,60.94
2019-05-03T05:29:40.933Z,61.12
2019-05-03T05:32:10.533Z,61.33
2019-05-03T05:34:41.594Z,61.20
2019-05-03T05:37:14.431Z,61.47
2019-05-03T05:39:46.442Z,61.14
2019-05-03T05:42:16.970Z,60.98
2019-05-03T05:44:47.500Z,61.28
2019-05-03T05:47:36.555Z,61.25
2019-05-03T05:50:22.013Z,60.66
2019-05-03T05:52:55.102Z,60.77
2019-05-03T05:55:42.418Z,60.60
2019-05-03T05:58:37.426Z,60.33
2019-05-03T06:01:27.793Z,60.03
2019-05-03T06:03:57.530Z,58.91
2019-05-03T06:06:45.141Z,58.92
2019-05-03T06:09:38.833Z,59.03
2019-05-03T06:12:14.822Z,58.77
2019-05-03T06:14:55.128Z,58.93
2019-05-03T06:17:32.312Z,58.38
2019-05-03T06:20:24.601Z,58.15
2019-05-03T06:23:05.223Z,57.61
2019-05-03T06:25:40.444Z,57.37
2019-05-03T06:28:20.823Z,56.52
2019-05-03T06:31:01.132Z,56.05
2019-05-03T06:33:30.633Z,53.88
2019-05-03T06:36:01.823Z,53.48
2019-05-03T06:38:34.390Z,53.00
2019-05-03T06:41:05.730Z,52.47
2019-05-03T06:43:39.634Z,52.07
2019-05-03T06:46:07.486Z,51.14
2019-05-03T06:48:37.016Z,50.47
2019-05-03T06:51:10.982Z,46.77
2019-05-03T06:53:41.830Z,43.33
2019-05-03T06:56:14.736Z,39.30
2019-05-03T06:58:45.483Z,37.33
2019-05-03T07:01:26.094Z,36.93
2019-05-03T07:04:10.986Z,37.27
2019-05-03T07:06:59.746Z,39.02
2019-05-03T07:09:38.887Z,39.58
2019-05-03T07:12:08.476Z,36.49
2019-05-03T07:14:38.118Z,34.96
2019-05-03T07:17:08.948Z,34.86
2019-05-03T07:19:39.587Z,32.73
2019-05-03T07:22:12.056Z,30.85
2019-05-03T07:24:41.810Z,31.00
2019-05-03T07:27:11.408Z,33.09
2019-05-03T07:29:44.052Z,34.64
2019-05-03T07:32:17.573Z,34.55
2019-05-03T07:34:47.062Z,35.40
2019-05-03T07:37:16.507Z,37.01
2019-05-03T07:39:46.250Z,37.37
2019-05-03T07:42:15.780Z,35.57
2019-05-03T07:44:46.915Z,33.62
2019-05-03T07:47:16.417Z,35.49
2019-05-03T07:49:47.037Z,37.67
2019-05-03T07:52:18.230Z,40.10
2019-05-03T07:54:48.266Z,42.06
2019-05-03T07:57:46.534Z,43.20
2019-05-03T08:00:22.054Z,44.46
2019-05-03T08:02:51.570Z,42.04
2019-05-03T08:05:24.565Z,41.02
2019-05-03T08:07:56.675Z,40.66
2019-05-03T08:10:27.776Z,38.28
2019-05-03T08:13:04.570Z,38.07
2019-05-03T08:15:34.771Z,38.19
2019-05-03T08:18:04.952Z,38.81
2019-05-03T08:20:35.043Z,39.23
2019-05-03T08:23:06.095Z,39.07
2019-05-03T08:25:35.588Z,38.51
2019-05-03T08:28:10.075Z,34.78
2019-05-03T08:30:54.329Z,31.72
2019-05-03T08:34:04.681Z,31.05
2019-05-03T08:36:58.525Z,31.41
2019-05-03T08:39:29.898Z,29.49
2019-05-03T08:42:04.815Z,31.51
2019-05-03T08:44:35.362Z,33.07
2019-05-03T08:47:05.386Z,34.37
2019-05-03T08:49:37.744Z,35.70
2019-05-03T08:52:08.791Z,36.48
2019-05-03T08:54:38.402Z,36.75
2019-05-03T08:57:08.021Z,36.09
2019-05-03T08:59:38.558Z,36.90
2019-05-03T09:02:14.287Z,36.32
2019-05-03T09:04:43.266Z,34.82
2019-05-03T09:07:14.794Z,33.12
2019-05-03T09:10:12.333Z,32.80
2019-05-03T09:12:56.840Z,32.23
2019-05-03T09:15:26.656Z,32.13
2019-05-03T09:17:56.276Z,33.16
2019-05-03T09:20:26.321Z,36.11
2019-05-03T09:22:55.919Z,41.22
2019-05-03T09:25:27.891Z,45.88
2019-05-03T09:27:59.001Z,47.88
2019-05-03T09:30:29.706Z,49.04
2019-05-03T09:32:59.134Z,48.32
2019-05-03T09:35:33.184Z,47.82
2019-05-03T09:38:01.439Z,48.54
2019-05-03T09:40:38.055Z,47.13
2019-05-03T09:43:09.273Z,47.39
2019-05-03T09:45:39.878Z,46.81
2019-05-03T09:48:11.008Z,46.11
2019-05-03T09:50:45.207Z,46.44
2019-05-03T09:53:16.048Z,44.29
2019-05-03T09:55:47.846Z,44.26
2019-05-03T09:58:18.687Z,43.61
2019-05-03T10:00:51.796Z,42.86
2019-05-03T10:03:21.926Z,41.75
2019-05-03T10:05:55.201Z,41.24
2019-05-03T10:08:27.219Z,41.93
2019-05-03T10:11:12.240Z,41.69
2019-05-03T10:13:42.142Z,39.41
2019-05-03T10:16:11.745Z,40.06
2019-05-03T10:18:41.125Z,40.87
2019-05-03T10:21:10.707Z,42.46
2019-05-03T10:23:41.529Z,43.45
2019-05-03T10:26:11.950Z,43.71
2019-05-03T10:28:41.580Z,43.42
2019-05-03T10:31:10.975Z,42.73
2019-05-03T10:33:45.223Z,42.31
2019-05-03T10:36:15.575Z,43.29
2019-05-03T10:38:45.941Z,44.25
2019-05-03T10:41:15.577Z,44.75
2019-05-03T10:43:46.597Z,44.42
2019-05-03T10:46:16.153Z,42.90
2019-05-03T10:48:45.602Z,42.05
2019-05-03T10:51:15.820Z,41.25
2019-05-03T10:53:48.192Z,40.23
2019-05-03T10:56:28.880Z,37.93
2019-05-03T10:59:03.301Z,37.05
2019-05-03T11:01:51.955Z,36.82
2019-05-03T11:04:23.002Z,35.96
2019-05-03T11:06:54.930Z,36.26
2019-05-03T11:09:26.086Z,35.73
2019-05-03T11:11:58.578Z,36.21
2019-05-03T11:14:30.139Z,36.47
2019-05-03T11:17:00.630Z,36.30
2019-05-03T11:19:31.929Z,35.93
2019-05-03T11:22:02.609Z,36.07
2019-05-03T11:24:32.166Z,36.03
2019-05-03T11:27:06.191Z,35.70
2019-05-03T11:29:37.744Z,36.23
2019-05-03T11:32:25.563Z,36.21
2019-05-03T11:35:05.405Z,36.42
2019-05-03T11:37:46.522Z,36.78
2019-05-03T11:40:18.257Z,37.86
2019-05-03T11:42:48.351Z,39.36
2019-05-03T11:45:20.325Z,39.54
2019-05-03T11:47:50.006Z,40.03
2019-05-03T11:50:19.542Z,40.50
2019-05-03T11:52:49.072Z,41.56
2019-05-03T11:55:20.084Z,42.65
2019-05-03T11:57:51.363Z,43.83
2019-05-03T12:00:30.197Z,43.94
2019-05-03T12:03:28.693Z,43.75
2019-05-03T12:06:00.913Z,42.98
2019-05-03T12:08:30.624Z,42.98
2019-05-03T12:11:01.764Z,41.50
2019-05-03T12:13:32.075Z,41.25
2019-05-03T12:16:05.472Z,41.18
2019-05-03T12:18:48.902Z,40.00
2019-05-03T12:21:09.132Z,40.62
2019-05-03T12:23:39.726Z,40.46
2019-05-03T12:26:12.983Z,40.78
2019-05-03T12:28:44.649Z,41.26
2019-05-03T12:31:29.648Z,41.12
2019-05-03T12:33:46.158Z,40.97
2019-05-03T12:36:16.066Z,42.55
2019-05-03T12:38:45.581Z,42.94
2019-05-03T12:41:16.857Z,43.20
2019-05-03T12:43:47.390Z,43.05
2019-05-03T12:46:18.169Z,41.79
2019-05-03T12:48:47.848Z,41.66
2019-05-03T12:51:17.664Z,40.87
2019-05-03T12:53:48.277Z,40.88
2019-05-03T12:56:24.229Z,40.00
2019-05-03T12:59:10.963Z,39.28
2019-05-03T13:02:09.523Z,38.63
2019-05-03T13:04:39.718Z,38.34
2019-05-03T13:07:23.830Z,38.82
2019-05-03T13:09:56.879Z,38.53
2019-05-03T13:12:29.727Z,38.61
2019-05-03T13:14:59.379Z,39.11
2019-05-03T13:17:38.454Z,40.03
2019-05-03T13:20:14.019Z,40.36
2019-05-03T13:22:45.855Z,40.99
2019-05-03T13:25:16.337Z,41.68
2019-05-03T13:27:47.281Z,41.48
2019-05-03T13:30:18.009Z,41.42
2019-05-03T13:32:47.432Z,40.84
2019-05-03T13:35:17.293Z,39.86
2019-05-03T13:37:47.288Z,40.11
2019-05-03T13:40:17.871Z,39.84
2019-05-03T13:42:56.118Z,40.11
2019-05-03T13:45:18.533Z,40.86
2019-05-03T13:47:50.381Z,41.43
2019-05-03T13:50:20.810Z,42.18
2019-05-03T13:52:51.652Z,43.18
2019-05-03T13:55:24.649Z,43.94
2019-05-03T13:57:55.368Z,44.05
2019-05-03T14:00:25.012Z,44.01
2019-05-03T14:02:56.332Z,43.87
2019-05-03T14:05:25.964Z,43.30
2019-05-03T14:07:56.371Z,42.79
2019-05-03T14:10:27.308Z,42.93
2019-05-03T14:12:58.616Z,42.88
2019-05-03T14:15:29.650Z,41.62
2019-05-03T14:18:00.614Z,40.52
2019-05-03T14:20:47.681Z,41.03
2019-05-03T14:23:19.583Z,40.08
2019-05-03T14:25:48.995Z,39.96
2019-05-03T14:28:18.772Z,39.67
2019-05-03T14:30:48.274Z,40.26
2019-05-03T14:33:17.849Z,40.28
2019-05-03T14:35:49.209Z,41.13
2019-05-03T14:38:21.528Z,41.62
2019-05-03T14:40:51.069Z,41.69
2019-05-03T14:43:20.929Z,41.77
2019-05-03T14:45:50.480Z,41.51
2019-05-03T14:48:20.033Z,40.73
2019-05-03T14:50:51.118Z,40.37
2019-05-03T14:53:22.460Z,39.71
2019-05-03T14:55:58.334Z,39.07
2019-05-03T14:58:58.888Z,38.73
2019-05-03T15:01:38.675Z,38.89
2019-05-03T15:04:08.220Z,38.88
2019-05-03T15:06:37.889Z,38.75
2019-05-03T15:09:08.604Z,38.32
2019-05-03T15:11:39.599Z,39.02
2019-05-03T15:14:10.963Z,39.33
2019-05-03T15:16:40.526Z,39.43
2019-05-03T15:19:10.002Z,39.30
2019-05-03T15:21:39.554Z,39.20
2019-05-03T15:24:10.291Z,39.55
2019-05-03T15:26:39.779Z,39.54
2019-05-03T15:29:09.621Z,39.12
2019-05-03T15:31:40.381Z,38.98
2019-05-03T15:34:10.001Z,39.00
2019-05-03T15:36:41.003Z,36.36
2019-05-03T15:39:15.269Z,35.95
2019-05-03T15:41:45.044Z,36.25
2019-05-03T15:44:25.278Z,36.67
2019-05-03T15:47:02.613Z,36.41
2019-05-03T15:49:32.255Z,36.68
2019-05-03T15:52:01.904Z,36.49
2019-05-03T15:54:33.155Z,36.66
2019-05-03T15:57:05.029Z,36.74
2019-05-03T15:59:35.926Z,36.58
2019-05-03T16:02:06.904Z,36.69
2019-05-03T16:04:36.836Z,36.97
2019-05-03T16:07:06.528Z,36.57
2019-05-03T16:09:37.980Z,37.01
2019-05-03T16:12:07.809Z,37.44
2019-05-03T16:14:38.647Z,37.49
2019-05-03T16:17:09.057Z,37.63
2019-05-03T16:19:39.739Z,37.94
2019-05-03T16:22:09.214Z,38.20
2019-05-03T16:24:44.806Z,38.53
2019-05-03T16:27:47.434Z,38.62
2019-05-03T16:30:36.425Z,38.33
2019-05-03T16:33:22.417Z,38.82
2019-05-03T16:35:44.397Z,38.92
2019-05-03T16:38:15.560Z,38.77
2019-05-03T16:40:46.701Z,38.78
2019-05-03T16:43:17.407Z,39.00
2019-05-03T16:45:46.831Z,39.39
2019-05-03T16:48:18.400Z,39.70
2019-05-03T16:50:47.756Z,39.50
2019-05-03T16:53:17.305Z,40.11
2019-05-03T16:55:47.116Z,39.72
2019-05-03T16:58:18.113Z,39.85
2019-05-03T17:00:48.781Z,40.05
2019-05-03T17:03:37.915Z,40.16
2019-05-03T17:06:16.650Z,40.40
2019-05-03T17:09:15.664Z,40.57
2019-05-03T17:11:55.993Z,40.72
2019-05-03T17:14:24.953Z,40.99
2019-05-03T17:16:55.677Z,41.42
2019-05-03T17:19:26.191Z,41.40
2019-05-03T17:21:56.290Z,42.15
2019-05-03T17:24:29.055Z,43.20
2019-05-03T17:26:58.448Z,43.69
2019-05-03T17:29:30.187Z,44.34
2019-05-03T17:32:02.032Z,45.74
2019-05-03T17:34:31.639Z,47.75
2019-05-03T17:37:02.148Z,48.91
2019-05-03T17:39:51.025Z,50.22
2019-05-03T17:42:31.011Z,53.03
2019-05-03T17:45:00.642Z,53.88
2019-05-03T17:47:30.148Z,52.99
2019-05-03T17:49:59.997Z,53.36
2019-05-03T17:52:48.326Z,53.78
2019-05-03T17:55:36.793Z,53.99
2019-05-03T17:58:37.489Z,53.76
2019-05-03T18:01:23.524Z,53.94
2019-05-03T18:04:05.671Z,53.94
2019-05-03T18:06:32.084Z,53.86
2019-05-03T18:09:37.119Z,54.78
2019-05-03T18:12:08.269Z,55.16
2019-05-03T18:14:38.730Z,56.54
2019-05-03T18:17:08.311Z,57.18
2019-05-03T18:19:40.898Z,56.91
2019-05-03T18:22:11.325Z,56.36
2019-05-03T18:24:45.519Z,56.36
2019-05-03T18:27:18.115Z,56.02
2019-05-03T18:29:48.658Z,56.40
2019-05-03T18:32:21.750Z,55.49
2019-05-03T18:34:51.526Z,55.41
2019-05-03T18:37:24.514Z,55.45
2019-05-03T18:39:54.777Z,55.31
2019-05-03T18:42:35.953Z,55.08
2019-05-03T18:45:19.192Z,55.43
2019-05-03T18:47:48.623Z,55.29
2019-05-03T18:50:18.422Z,55.50
2019-05-03T18:52:50.064Z,55.06
2019-05-03T18:55:22.090Z,55.59
2019-05-03T18:57:51.862Z,58.62
2019-05-03T19:00:24.641Z,60.01
2019-05-03T19:02:55.370Z,60.68
2019-05-03T19:05:26.801Z,61.71
2019-05-03T19:08:05.342Z,62.12
2019-05-03T19:10:44.635Z,63.40
2019-05-03T19:13:27.232Z,63.49
2019-05-03T19:15:56.846Z,64.05
2019-05-03T19:18:28.643Z,64.27
2019-05-03T19:20:59.976Z,64.45
2019-05-03T19:23:31.232Z,64.53
2019-05-03T19:26:03.189Z,64.33
2019-05-03T19:28:35.408Z,64.82
2019-05-03T19:31:06.874Z,64.67
2019-05-03T19:33:37.257Z,64.45
2019-05-03T19:36:07.069Z,64.16
2019-05-03T19:38:36.545Z,64.11
2019-05-03T19:41:06.100Z,64.15
2019-05-03T19:43:35.742Z,63.63
2019-05-03T19:46:07.449Z,64.08
2019-05-03T19:48:37.267Z,63.96
2019-05-03T19:51:06.923Z,63.73
2019-05-03T19:53:49.803Z,64.15
2019-05-03T19:56:21.225Z,64.26
2019-05-03T19:58:52.435Z,64.21
2019-05-03T20:01:40.975Z,63.72
2019-05-03T20:04:41.859Z,63.78
2019-05-03T20:07:25.353Z,63.88
2019-05-03T20:09:55.738Z,63.85
2019-05-03T20:12:25.189Z,63.19
2019-05-03T20:14:54.847Z,62.49
2019-05-03T20:17:24.461Z,62.33
2019-05-03T20:19:57.472Z,61.27
2019-05-03T20:22:30.312Z,61.38
2019-05-03T20:25:02.000Z,61.23
2019-05-03T20:27:31.481Z,61.02
2019-05-03T20:30:01.486Z,61.05
2019-05-03T20:32:31.972Z,61.05
2019-05-03T20:35:12.923Z,61.30
2019-05-03T20:37:34.430Z,61.31
2019-05-03T20:40:04.944Z,60.68
2019-05-03T20:43:04.876Z,60.55
2019-05-03T20:45:54.698Z,60.84
2019-05-03T20:48:25.138Z,61.26
2019-05-03T20:50:55.164Z,61.30
2019-05-03T20:53:25.169Z,61.93
2019-05-03T20:55:54.708Z,62.24
2019-05-03T20:58:25.141Z,62.82
2019-05-03T21:00:54.968Z,62.97
2019-05-03T21:03:26.300Z,63.01
2019-05-03T21:05:58.897Z,63.23
2019-05-03T21:08:28.349Z,63.23
2019-05-03T21:10:59.121Z,63.61
2019-05-03T21:13:41.320Z,64.51
2019-05-03T21:16:23.368Z,64.54
2019-05-03T21:19:25.687Z,64.80
2019-05-03T21:22:08.171Z,64.73
2019-05-03T21:24:47.025Z,64.50
2019-05-03T21:27:18.220Z,64.75
2019-05-03T21:29:55.161Z,64.82
2019-05-03T21:32:25.441Z,65.33
2019-05-03T21:34:56.723Z,65.22
2019-05-03T21:37:26.338Z,65.45
2019-05-03T21:39:55.946Z,65.59
2019-05-03T21:42:25.441Z,65.37
2019-05-03T21:44:56.268Z,65.88
2019-05-03T21:47:41.134Z,66.08
2019-05-03T21:50:14.789Z,65.92
2019-05-03T21:52:45.809Z,65.73
2019-05-03T21:55:17.132Z,66.06
2019-05-03T21:57:46.630Z,66.49
2019-05-03T22:00:17.317Z,66.90
2019-05-03T22:02:46.988Z,66.73
2019-05-03T22:05:16.702Z,67.38
2019-05-03T22:07:47.347Z,67.31
2019-05-03T22:10:18.283Z,67.45
2019-05-03T22:12:50.757Z,67.20
2019-05-03T22:15:34.652Z,67.07
2019-05-03T22:18:21.037Z,67.66
2019-05-03T22:21:13.361Z,67.61
2019-05-03T22:24:06.873Z,67.76
2019-05-03T22:26:52.164Z,67.94
2019-05-03T22:29:25.249Z,68.27
2019-05-03T22:31:54.867Z,68.62
2019-05-03T22:34:25.722Z,68.72
2019-05-03T22:36:56.528Z,68.52
2019-05-03T22:39:27.077Z,68.74
2019-05-03T22:41:56.856Z,68.83
2019-05-03T22:44:26.258Z,68.93
2019-05-03T22:46:55.631Z,68.85
2019-05-03T22:49:26.410Z,68.78
2019-05-03T22:51:55.799Z,68.79
2019-05-03T22:54:25.323Z,68.60
2019-05-03T22:56:56.783Z,68.31
2019-05-03T22:59:27.343Z,68.51
2019-05-03T23:01:58.257Z,68.12
2019-05-03T23:04:29.708Z,68.24
2019-05-03T23:07:00.151Z,68.64
2019-05-03T23:09:30.979Z,68.32
2019-05-03T23:12:00.692Z,68.77
2019-05-03T23:14:30.199Z,68.70
2019-05-03T23:17:02.420Z,69.21
2019-05-03T23:19:36.373Z,69.13
2019-05-03T23:22:24.692Z,69.46
2019-05-03T23:24:54.923Z,69.39
2019-05-03T23:27:25.105Z,69.86
2019-05-03T23:29:55.258Z,69.82
2019-05-03T23:32:28.065Z,69.92
2019-05-03T23:34:57.505Z,69.84
2019-05-03T23:37:28.059Z,69.58
2019-05-03T23:39:58.956Z,69.69
2019-05-03T23:42:30.100Z,69.62
2019-05-03T23:45:02.448Z,69.64
2019-05-03T23:47:42.013Z,69.14
2019-05-03T23:50:16.228Z,68.56
2019-05-03T23:52:48.706Z,68.69
2019-05-03T23:55:25.288Z,68.80
2019-05-03T23:57:55.871Z,68.72
